Time;durP1;ratioP1;P1;durP2;ratioP2;P2;SDS_P1;SDS_P2;PMS_P1;PMS_P2;Temp;Humidity;BMP_temperature;BMP_pressure;BME280_temperature;BME280_humidity;BME280_pressure;Samples;Min_cycle;Max_cycle;Signal;HPM_P1;HPM_P2
2022/03/14 00:02:14;;;;;;;5.43;4.43;;;;;;;-148.56;100.00;61375.16;5050041;28;20043;-31
2022/03/14 00:04:40;;;;;;;5.88;4.20;;;;;;;-148.56;100.00;61375.16;5049705;28;20035;-29
2022/03/14 00:07:05;;;;;;;6.97;4.68;;;;;;;-148.56;100.00;61375.16;5049451;28;20678;-31
2022/03/14 00:09:31;;;;;;;5.55;3.90;;;;;;;-148.56;100.00;61375.16;5047358;28;20021;-34
2022/03/14 00:11:57;;;;;;;5.82;3.97;;;;;;;-148.56;100.00;61375.16;5050148;28;20398;-28
2022/03/14 00:14:25;;;;;;;6.55;4.05;;;;;;;-148.56;100.00;61375.16;5047364;28;20024;-30
2022/03/14 00:16:55;;;;;;;6.38;4.25;;;;;;;-148.56;100.00;61375.16;5048048;28;20025;-29
2022/03/14 00:19:20;;;;;;;5.22;3.97;;;;;;;-148.56;100.00;61375.16;5047810;28;20032;-30
2022/03/14 00:21:46;;;;;;;4.90;4.03;;;;;;;-148.56;100.00;61375.16;5046802;28;20020;-28
2022/03/14 00:24:11;;;;;;;5.60;4.05;;;;;;;-148.56;100.00;61375.16;5048740;28;20493;-30
2022/03/14 00:26:37;;;;;;;5.20;3.75;;;;;;;-148.56;100.00;61375.16;5057928;28;20033;-30
2022/03/14 00:29:03;;;;;;;6.35;3.95;;;;;;;-148.56;100.00;61375.16;5058987;28;20605;-28
2022/03/14 00:31:29;;;;;;;4.35;3.35;;;;;;;-148.56;100.00;61375.16;5059797;28;20036;-30
2022/03/14 00:33:54;;;;;;;5.55;3.80;;;;;;;-148.56;100.00;61375.16;5057349;28;20430;-33
2022/03/14 00:36:20;;;;;;;5.00;3.60;;;;;;;-148.56;100.00;61375.16;5056669;28;20058;-29
2022/03/14 00:38:46;;;;;;;8.40;4.65;;;;;;;-148.56;100.00;61375.16;5059693;28;20020;-34
2022/03/14 00:41:12;;;;;;;5.32;3.97;;;;;;;-148.56;100.00;61375.16;5051101;28;20036;-27
2022/03/14 00:43:38;;;;;;;4.95;3.70;;;;;;;-148.56;100.00;61375.16;5048642;28;20028;-33
2022/03/14 00:46:03;;;;;;;4.95;3.75;;;;;;;-148.56;100.00;61375.16;5048743;28;20517;-30
2022/03/14 00:48:32;;;;;;;5.50;3.85;;;;;;;-148.56;100.00;61375.16;5048713;28;20085;-28
2022/03/14 00:50:57;;;;;;;7.63;3.67;;;;;;;-148.56;100.00;61375.16;5047503;28;20114;-29
2022/03/14 00:53:23;;;;;;;6.32;4.18;;;;;;;-148.56;100.00;61375.16;5045618;28;20248;-29
2022/03/14 00:55:48;;;;;;;4.50;3.80;;;;;;;-148.56;100.00;61375.16;5049314;28;20032;-27
2022/03/14 00:58:14;;;;;;;5.22;3.55;;;;;;;-148.56;100.00;61375.16;5049386;28;20561;-29
2022/03/14 01:00:39;;;;;;;6.15;3.88;;;;;;;-148.56;100.00;61375.16;5045667;28;20769;-32
2022/03/14 01:03:05;;;;;;;5.47;3.63;;;;;;;-148.56;100.00;61375.16;5049341;28;20032;-32
2022/03/14 01:05:30;;;;;;;6.70;3.85;;;;;;;-148.56;100.00;61375.16;5046841;28;20474;-28
2022/03/14 01:07:56;;;;;;;5.40;3.95;;;;;;;-148.56;100.00;61375.16;5049045;28;20028;-31
2022/03/14 01:10:23;;;;;;;5.93;4.00;;;;;;;-148.56;100.00;61375.16;5048618;28;20043;-29
2022/03/14 01:12:49;;;;;;;5.30;3.78;;;;;;;-148.56;100.00;61375.16;5043470;28;20032;-29
2022/03/14 01:15:14;;;;;;;4.15;3.20;;;;;;;-148.56;100.00;61375.16;5049027;28;20078;-28
2022/03/14 01:17:40;;;;;;;5.47;3.75;;;;;;;-148.56;100.00;61375.16;5047885;28;20506;-28
2022/03/14 01:20:06;;;;;;;4.57;3.50;;;;;;;-148.56;100.00;61375.16;5058881;28;20020;-32
2022/03/14 01:22:32;;;;;;;4.53;3.03;;;;;;;-148.56;100.00;61375.16;5055400;28;21779;-30
2022/03/14 01:24:57;;;;;;;4.05;3.28;;;;;;;-148.56;100.00;61375.16;5053435;28;20029;-27
2022/03/14 01:27:22;;;;;;;6.75;3.78;;;;;;;-148.56;100.00;61375.16;5056122;28;20027;-31
2022/03/14 01:29:48;;;;;;;4.72;3.55;;;;;;;-148.56;100.00;61375.16;5058619;28;20025;-29
2022/03/14 01:32:13;;;;;;;5.05;3.50;;;;;;;-148.56;100.00;61375.16;5057117;28;20517;-27
2022/03/14 01:34:39;;;;;;;5.30;3.50;;;;;;;-148.56;100.00;61375.16;5055943;28;20050;-29
2022/03/14 01:37:04;;;;;;;4.93;3.55;;;;;;;-148.56;100.00;61375.16;5052575;28;20032;-31
2022/03/14 01:39:30;;;;;;;4.15;2.97;;;;;;;-148.56;100.00;61375.16;5058060;28;20031;-31
2022/03/14 01:41:57;;;;;;;4.30;3.13;;;;;;;-148.56;100.00;61375.16;5056908;28;20032;-28
2022/03/14 01:44:23;;;;;;;4.55;3.45;;;;;;;-148.56;100.00;61375.16;5057539;28;20781;-31
2022/03/14 01:46:48;;;;;;;5.07;3.22;;;;;;;-148.56;100.00;61375.16;5055756;28;20031;-31
2022/03/14 01:49:14;;;;;;;4.35;2.95;;;;;;;-148.56;100.00;61375.16;5054628;28;20024;-27
2022/03/14 01:51:41;;;;;;;4.93;3.30;;;;;;;-148.56;100.00;61375.16;5044133;28;20064;-30
2022/03/14 01:54:07;;;;;;;4.80;3.35;;;;;;;-148.56;100.00;61375.16;5047413;28;20051;-27
2022/03/14 01:56:34;;;;;;;3.97;3.00;;;;;;;-148.56;100.00;61375.16;5049022;28;20024;-28
2022/03/14 01:58:59;;;;;;;7.25;3.03;;;;;;;-148.56;100.00;61375.16;5046224;28;20031;-32
2022/03/14 02:01:25;;;;;;;4.25;3.28;;;;;;;-148.56;100.00;61375.16;5028095;28;20028;-31
2022/03/14 02:03:50;;;;;;;4.53;3.30;;;;;;;-148.56;100.00;61375.16;5048393;28;20028;-28
2022/03/14 02:06:17;;;;;;;4.20;2.97;;;;;;;-148.56;100.00;61375.16;5047292;28;20703;-31
2022/03/14 02:08:42;;;;;;;4.88;3.13;;;;;;;-148.56;100.00;61375.16;5044557;28;20578;-31
2022/03/14 02:11:08;;;;;;;4.60;3.10;;;;;;;-148.56;100.00;61375.16;5046687;28;20028;-30
2022/03/14 02:13:33;;;;;;;5.20;3.10;;;;;;;-148.56;100.00;61375.16;5048311;28;20055;-28
2022/03/14 02:15:59;;;;;;;4.53;3.10;;;;;;;-148.56;100.00;61375.16;5046416;28;20035;-31
2022/03/14 02:18:24;;;;;;;4.85;3.42;;;;;;;-148.56;100.00;61375.16;5043494;28;20109;-29
2022/03/14 02:20:50;;;;;;;4.45;3.10;;;;;;;-148.56;100.00;61375.16;5047387;28;20032;-28
2022/03/14 02:23:15;;;;;;;4.50;2.97;;;;;;;-148.56;100.00;61375.16;5047626;28;20025;-29
2022/03/14 02:25:47;;;;;;;4.60;3.00;;;;;;;-148.56;100.00;61375.16;5044984;28;21812;-30
2022/03/14 02:28:13;;;;;;;3.92;3.00;;;;;;;-148.56;100.00;61375.16;5045523;28;20024;-31
2022/03/14 02:30:38;;;;;;;3.67;2.85;;;;;;;-148.56;100.00;61375.16;5043766;28;20029;-29
2022/03/14 02:33:06;;;;;;;4.70;3.10;;;;;;;-148.56;100.00;61375.16;5046525;28;20032;-30
2022/03/14 02:35:32;;;;;;;4.50;3.05;;;;;;;-148.56;100.00;61375.16;5048440;28;20016;-31
2022/03/14 02:37:58;;;;;;;4.25;3.13;;;;;;;-148.56;100.00;61375.16;5044535;28;20025;-31
2022/03/14 02:40:23;;;;;;;3.83;2.75;;;;;;;-148.56;100.00;61375.16;5051446;28;20114;-29
2022/03/14 02:42:49;;;;;;;3.63;2.63;;;;;;;-148.56;100.00;61375.16;5050441;28;20032;-29
2022/03/14 02:45:15;;;;;;;6.60;3.10;;;;;;;-148.56;100.00;61375.16;5045426;28;20054;-31
2022/03/14 02:47:40;;;;;;;5.13;3.03;;;;;;;-148.56;100.00;61375.16;5047917;28;20224;-28
2022/03/14 02:50:06;;;;;;;3.70;2.90;;;;;;;-148.56;100.00;61375.16;5052209;28;20033;-29
2022/03/14 02:52:32;;;;;;;6.07;3.10;;;;;;;-148.56;100.00;61375.16;5048219;28;20028;-30
2022/03/14 02:54:58;;;;;;;4.20;2.63;;;;;;;-148.56;100.00;61375.16;5050040;28;20044;-30
2022/03/14 02:57:23;;;;;;;3.22;2.67;;;;;;;-148.56;100.00;61375.16;5049654;28;20036;-28
2022/03/14 02:59:49;;;;;;;5.00;2.85;;;;;;;-148.56;100.00;61375.16;5050062;28;20024;-29
2022/03/14 03:02:15;;;;;;;3.33;2.60;;;;;;;-148.56;100.00;61375.16;5049585;28;20554;-28
2022/03/14 03:04:40;;;;;;;5.30;2.70;;;;;;;-148.56;100.00;61375.16;5050908;28;20025;-28
2022/03/14 03:07:07;;;;;;;4.30;2.55;;;;;;;-148.56;100.00;61375.16;5052788;28;20028;-31
2022/03/14 03:09:32;;;;;;;5.40;2.83;;;;;;;-148.56;100.00;61375.16;5047251;28;20620;-28
2022/03/14 03:11:59;;;;;;;4.32;2.63;;;;;;;-148.56;100.00;61375.16;5047166;28;20035;-30
2022/03/14 03:14:25;;;;;;;4.82;2.92;;;;;;;-148.56;100.00;61375.16;5047020;28;20518;-32
2022/03/14 03:16:50;;;;;;;3.05;2.67;;;;;;;-148.56;100.00;61375.16;5047107;28;20028;-31
2022/03/14 03:19:16;;;;;;;3.80;2.53;;;;;;;-148.56;100.00;61375.16;5051043;28;20016;-29
2022/03/14 03:21:41;;;;;;;3.53;2.45;;;;;;;-148.56;100.00;61375.16;5048067;28;20743;-32
2022/03/14 03:24:07;;;;;;;3.80;2.75;;;;;;;-148.56;100.00;61375.16;5049568;28;20040;-31
2022/03/14 03:26:39;;;;;;;3.88;2.53;;;;;;;-148.56;100.00;61375.16;5049752;28;20534;-29
2022/03/14 03:29:06;;;;;;;3.97;2.42;;;;;;;-148.56;100.00;61375.16;5050197;28;20039;-33
2022/03/14 03:31:32;;;;;;;4.53;2.72;;;;;;;-148.56;100.00;61375.16;5052953;28;20063;-34
2022/03/14 03:33:57;;;;;;;4.70;2.60;;;;;;;-148.56;100.00;61375.16;5056239;28;20028;-29
2022/03/14 03:36:22;;;;;;;3.15;2.70;;;;;;;-148.56;100.00;61375.16;5050503;28;20034;-30
2022/03/14 03:38:48;;;;;;;4.53;2.60;;;;;;;-148.56;100.00;61375.16;5045606;28;20047;-31
2022/03/14 03:41:13;;;;;;;3.22;2.53;;;;;;;-148.56;100.00;61375.16;5051394;28;20029;-33
2022/03/14 03:43:39;;;;;;;3.92;2.60;;;;;;;-148.56;100.00;61375.16;5050026;28;20033;-30
2022/03/14 03:46:04;;;;;;;3.25;2.42;;;;;;;-148.56;100.00;61375.16;5049212;28;20097;-29
2022/03/14 03:48:30;;;;;;;3.70;2.55;;;;;;;-148.56;100.00;61375.16;5049827;28;20578;-29
2022/03/14 03:50:55;;;;;;;2.97;2.30;;;;;;;-148.56;100.00;61375.16;5052049;28;20036;-28
2022/03/14 03:53:21;;;;;;;2.60;2.40;;;;;;;-148.56;100.00;61375.16;5051040;28;20028;-30
2022/03/14 03:55:47;;;;;;;3.90;2.60;;;;;;;-148.56;100.00;61375.16;5049726;28;20039;-30
2022/03/14 03:58:12;;;;;;;3.22;2.70;;;;;;;-148.56;100.00;61375.16;5050464;28;20044;-30
2022/03/14 04:00:38;;;;;;;3.13;2.30;;;;;;;-148.56;100.00;61375.16;5050834;28;20032;-30
2022/03/14 04:03:03;;;;;;;3.45;2.55;;;;;;;-148.56;100.00;61375.16;5050451;28;20021;-31
2022/03/14 04:05:30;;;;;;;4.10;2.42;;;;;;;-148.56;100.00;61375.16;5049714;28;20039;-31
2022/03/14 04:07:56;;;;;;;3.42;2.50;;;;;;;-148.56;100.00;61375.16;5047389;28;20033;-28
2022/03/14 04:10:21;;;;;;;2.67;2.17;;;;;;;-148.56;100.00;61375.16;5047971;28;20082;-27
2022/03/14 04:12:47;;;;;;;3.38;2.45;;;;;;;-148.56;100.00;61375.16;5046792;28;20032;-28
2022/03/14 04:15:14;;;;;;;3.38;2.50;;;;;;;-148.56;100.00;61375.16;5047082;28;20029;-28
2022/03/14 04:17:42;;;;;;;4.93;2.20;;;;;;;-148.56;100.00;61375.16;5051614;28;20032;-27
2022/03/14 04:20:09;;;;;;;5.32;2.38;;;;;;;-148.56;100.00;61375.16;5042650;28;20039;-29
2022/03/14 04:22:40;;;;;;;3.15;2.42;;;;;;;-148.56;100.00;61375.16;5051927;28;20089;-29
2022/03/14 04:25:06;;;;;;;;;;;;;;;-148.56;100.00;61375.16;5051649;28;20688;-29
2022/03/14 04:27:32;;;;;;;3.30;2.47;;;;;;;-148.56;100.00;61375.16;5050080;28;20007;-26
2022/03/14 04:29:57;;;;;;;2.70;2.20;;;;;;;-148.56;100.00;61375.16;5048313;28;20474;-32
2022/03/14 04:32:23;;;;;;;3.05;1.95;;;;;;;-148.56;100.00;61375.16;5045837;28;20036;-27
2022/03/14 04:34:49;;;;;;;5.57;2.30;;;;;;;-148.56;100.00;61375.16;5048361;28;20024;-28
2022/03/14 04:37:14;;;;;;;2.92;2.08;;;;;;;-148.56;100.00;61375.16;5048317;28;20113;-25
2022/03/14 04:39:40;;;;;;;2.67;1.98;;;;;;;-148.56;100.00;61375.16;5049895;28;20036;-28
2022/03/14 04:42:07;;;;;;;3.47;2.03;;;;;;;-148.56;100.00;61375.16;5048713;28;20119;-28
2022/03/14 04:44:33;;;;;;;5.90;2.05;;;;;;;-148.56;100.00;61375.16;5047215;28;20082;-28
2022/03/14 04:46:58;;;;;;;2.45;2.00;;;;;;;-148.56;100.00;61375.16;5047288;28;20033;-32
2022/03/14 04:49:23;;;;;;;2.40;1.90;;;;;;;-148.56;100.00;61375.16;5049596;28;20040;-31
2022/03/14 04:51:50;;;;;;;6.10;2.05;;;;;;;-148.56;100.00;61375.16;5048622;28;20028;-27
2022/03/14 04:54:15;;;;;;;2.10;1.80;;;;;;;-148.56;100.00;61375.16;5048181;28;20033;-29
2022/03/14 04:56:41;;;;;;;2.92;1.90;;;;;;;-148.56;100.00;61375.16;5049472;28;20021;-33
2022/03/14 04:59:06;;;;;;;3.38;2.13;;;;;;;-148.56;100.00;61375.16;5048037;28;20012;-30
2022/03/14 05:01:32;;;;;;;2.15;1.95;;;;;;;-148.56;100.00;61375.16;5047696;28;20690;-27
2022/03/14 05:03:57;;;;;;;2.03;1.83;;;;;;;-148.56;100.00;61375.16;5045147;28;20033;-28
2022/03/14 05:06:22;;;;;;;2.60;1.70;;;;;;;-148.56;100.00;61375.16;5050340;28;20041;-28
2022/03/14 05:08:48;;;;;;;4.57;1.88;;;;;;;-148.56;100.00;61375.16;5048038;28;20028;-31
2022/03/14 05:11:14;;;;;;;2.15;1.80;;;;;;;-148.56;100.00;61375.16;5044832;28;20033;-27
2022/03/14 05:13:41;;;;;;;6.85;1.95;;;;;;;-148.56;100.00;61375.16;5046187;28;20051;-32
2022/03/14 05:16:06;;;;;;;2.05;1.75;;;;;;;-148.56;100.00;61375.16;5056427;28;20089;-28
2022/03/14 05:18:32;;;;;;;2.55;1.88;;;;;;;-148.56;100.00;61375.16;5057430;28;20032;-27
2022/03/14 05:20:58;;;;;;;2.42;1.90;;;;;;;-148.56;100.00;61375.16;5054986;28;20024;-31
2022/03/14 05:23:24;;;;;;;2.65;1.70;;;;;;;-148.56;100.00;61375.16;5055405;28;20039;-28
2022/03/14 05:25:50;;;;;;;2.15;1.83;;;;;;;-148.56;100.00;61375.16;5057509;28;20617;-30
2022/03/14 05:28:15;;;;;;;2.55;1.88;;;;;;;-148.56;100.00;61375.16;5056549;28;20020;-28
2022/03/14 05:30:41;;;;;;;2.72;1.75;;;;;;;-148.56;100.00;61375.16;5052374;28;20043;-30
2022/03/14 05:33:06;;;;;;;2.95;1.80;;;;;;;-148.56;100.00;61375.16;5056636;28;20023;-31
2022/03/14 05:35:31;;;;;;;2.40;1.92;;;;;;;-148.56;100.00;61375.16;5055644;28;20875;-28
2022/03/14 05:37:57;;;;;;;3.40;1.77;;;;;;;-148.56;100.00;61375.16;5057438;28;20028;-28
2022/03/14 05:40:22;;;;;;;3.38;1.52;;;;;;;-148.56;100.00;61375.16;5057978;28;20035;-29
2022/03/14 05:42:48;;;;;;;2.15;1.77;;;;;;;-148.56;100.00;61375.16;5057116;28;20094;-28
2022/03/14 05:45:14;;;;;;;2.13;1.60;;;;;;;-148.56;100.00;61375.16;5051785;28;20671;-24
2022/03/14 05:47:40;;;;;;;3.42;1.67;;;;;;;-148.56;100.00;61375.16;5047874;28;20035;-28
2022/03/14 05:50:06;;;;;;;2.10;1.42;;;;;;;-148.56;100.00;61375.16;5046496;28;20498;-27
2022/03/14 05:52:31;;;;;;;2.25;1.70;;;;;;;-148.56;100.00;61375.16;5046178;28;20123;-31
2022/03/14 05:54:57;;;;;;;2.00;1.65;;;;;;;-148.56;100.00;61375.16;5046180;28;20029;-30
2022/03/14 05:57:22;;;;;;;2.42;1.40;;;;;;;-148.56;100.00;61375.16;5045744;28;20025;-30
2022/03/14 05:59:48;;;;;;;1.65;1.50;;;;;;;-148.56;100.00;61375.16;5044342;28;20120;-29
2022/03/14 06:02:23;;;;;;;1.90;1.60;;;;;;;-148.56;100.00;61375.16;5047426;28;20040;-30
2022/03/14 06:04:49;;;;;;;1.50;1.40;;;;;;;-148.56;100.00;61375.16;5045199;28;20040;-34
2022/03/14 06:07:15;;;;;;;2.28;1.45;;;;;;;-148.56;100.00;61375.16;5047214;28;20052;-29
2022/03/14 06:09:40;;;;;;;2.05;1.70;;;;;;;-148.56;100.00;61375.16;5045454;28;20033;-34
2022/03/14 06:12:06;;;;;;;2.17;1.40;;;;;;;-148.56;100.00;61375.16;5045710;28;20036;-29
2022/03/14 06:14:32;;;;;;;1.70;1.20;;;;;;;-148.56;100.00;61375.16;5043309;28;20611;-28
2022/03/14 06:16:57;;;;;;;2.05;1.55;;;;;;;-148.56;100.00;61375.16;5046591;28;20032;-26
2022/03/14 06:19:23;;;;;;;1.60;1.42;;;;;;;-148.56;100.00;61375.16;5044545;28;20029;-27
2022/03/14 06:21:50;;;;;;;2.53;1.80;;;;;;;-148.56;100.00;61375.16;5046283;28;20031;-24
2022/03/14 06:24:16;;;;;;;1.65;1.45;;;;;;;-148.56;100.00;61375.16;5048505;28;20024;-31
2022/03/14 06:26:42;;;;;;;2.03;1.40;;;;;;;-148.56;100.00;61375.16;5050830;28;20742;-28
2022/03/14 06:29:07;;;;;;;2.53;1.35;;;;;;;-148.56;100.00;61375.16;5050939;28;20020;-28
2022/03/14 06:31:33;;;;;;;2.03;1.40;;;;;;;-148.56;100.00;61375.16;5051276;28;20075;-27
2022/03/14 06:33:59;;;;;;;2.25;1.60;;;;;;;-148.56;100.00;61375.16;5049901;28;20092;-31
2022/03/14 06:36:28;;;;;;;1.65;1.40;;;;;;;-148.56;100.00;61375.16;5048695;28;20642;-30
2022/03/14 06:38:56;;;;;;;1.23;1.08;;;;;;;-148.56;100.00;61375.16;5051148;28;20386;-31
2022/03/14 06:41:24;;;;;;;2.63;1.20;;;;;;;-148.56;100.00;61375.16;5049470;28;20070;-30
2022/03/14 06:43:52;;;;;;;3.22;1.30;;;;;;;-148.56;100.00;61375.16;5050526;28;20143;-31
2022/03/14 06:46:18;;;;;;;2.15;1.30;;;;;;;-148.56;100.00;61375.16;5048707;28;20025;-29
2022/03/14 06:48:44;;;;;;;2.88;1.10;;;;;;;-148.56;100.00;61375.16;5049872;28;20024;-29
2022/03/14 06:51:10;;;;;;;2.47;1.30;;;;;;;-148.56;100.00;61375.16;5050247;28;20025;-29
2022/03/14 06:53:36;;;;;;;2.17;1.23;;;;;;;-148.56;100.00;61375.16;5051378;28;20086;-28
2022/03/14 06:56:01;;;;;;;1.48;1.20;;;;;;;-148.56;100.00;61375.16;5050398;28;20028;-30
2022/03/14 06:58:26;;;;;;;2.45;1.45;;;;;;;-148.56;100.00;61375.16;5051253;28;20024;-32
2022/03/14 07:00:52;;;;;;;4.30;1.02;;;;;;;-148.56;100.00;61375.16;5050045;28;20935;-29
2022/03/14 07:03:17;;;;;;;3.13;1.45;;;;;;;-148.56;100.00;61375.16;5045421;28;20032;-27
2022/03/14 07:05:43;;;;;;;4.18;1.00;;;;;;;-148.56;100.00;61375.16;5055975;28;20032;-28
2022/03/14 07:08:10;;;;;;;4.10;1.30;;;;;;;-148.56;100.00;61375.16;5050892;28;20577;-30
2022/03/14 07:10:36;;;;;;;3.55;1.45;;;;;;;-148.56;100.00;61375.16;5048260;28;20085;-31
2022/03/14 07:13:01;;;;;;;3.95;1.35;;;;;;;-148.56;100.00;61375.16;5046963;28;20097;-29
2022/03/14 07:15:27;;;;;;;9.45;1.50;;;;;;;-148.56;100.00;61375.16;5049346;28;20783;-25
2022/03/14 07:17:52;;;;;;;6.18;1.90;;;;;;;-148.56;100.00;61375.16;5052574;28;20036;-29
2022/03/14 07:20:19;;;;;;;14.88;1.60;;;;;;;-148.56;100.00;61375.16;5037295;28;20119;-27
2022/03/14 07:22:52;;;;;;;8.18;2.20;;;;;;;-148.56;100.00;61375.16;5032494;28;20055;-26
2022/03/14 07:25:22;;;;;;;4.78;2.20;;;;;;;-148.56;100.00;61375.16;5033239;28;20099;-27
2022/03/14 07:27:47;;;;;;;8.63;2.17;;;;;;;-148.56;100.00;61375.16;5032800;28;20577;-30
2022/03/14 07:30:14;;;;;;;5.00;2.30;;;;;;;-148.56;100.00;61375.16;5035319;28;20024;-23
2022/03/14 07:32:39;;;;;;;8.10;2.95;;;;;;;-148.56;100.00;61375.16;5050662;28;20028;-29
2022/03/14 07:35:05;;;;;;;6.15;2.40;;;;;;;-148.56;100.00;61375.16;5032260;28;21489;-28
2022/03/14 07:37:30;;;;;;;6.35;2.42;;;;;;;-148.56;100.00;61375.16;5032857;28;20032;-27
2022/03/14 07:39:56;;;;;;;6.60;2.60;;;;;;;-148.56;100.00;61375.16;5046101;28;20029;-29
2022/03/14 07:42:21;;;;;;;7.68;2.53;;;;;;;-148.56;100.00;61375.16;5044931;28;20668;-29
2022/03/14 07:44:48;;;;;;;6.65;2.28;;;;;;;-148.56;100.00;61375.16;5041048;28;20028;-26
2022/03/14 07:47:13;;;;;;;7.80;2.40;;;;;;;-148.56;100.00;61375.16;5045006;28;20058;-28
2022/03/14 07:49:39;;;;;;;7.85;2.42;;;;;;;-148.56;100.00;61375.16;5048402;28;20719;-28
2022/03/14 07:52:05;;;;;;;6.82;2.40;;;;;;;-148.56;100.00;61375.16;5047342;28;20123;-29
2022/03/14 07:54:31;;;;;;;3.97;2.05;;;;;;;-148.56;100.00;61375.16;5046777;28;20028;-29
2022/03/14 07:56:56;;;;;;;6.30;2.05;;;;;;;-148.56;100.00;61375.16;5052492;28;20040;-30
2022/03/14 07:59:22;;;;;;;7.47;2.15;;;;;;;-148.56;100.00;61375.16;5050786;28;20063;-27
2022/03/14 08:01:47;;;;;;;4.45;2.38;;;;;;;-148.56;100.00;61375.16;5050785;28;20029;-30
2022/03/14 08:04:12;;;;;;;5.55;2.00;;;;;;;-148.56;100.00;61375.16;5046911;28;20509;-30
2022/03/14 08:06:41;;;;;;;6.00;1.88;;;;;;;-148.56;100.00;61375.16;5050194;28;20033;-27
2022/03/14 08:09:10;;;;;;;4.72;2.15;;;;;;;-148.56;100.00;61375.16;5049398;28;20577;-33
2022/03/14 08:11:38;;;;;;;6.22;2.05;;;;;;;-148.56;100.00;61375.16;5047715;28;20032;-31
2022/03/14 08:14:07;;;;;;;5.22;2.10;;;;;;;-148.56;100.00;61375.16;5048051;28;20048;-27
2022/03/14 08:16:32;;;;;;;5.85;2.17;;;;;;;-148.56;100.00;61375.16;5048581;28;20126;-28
2022/03/14 08:18:58;;;;;;;3.60;1.83;;;;;;;-148.56;100.00;61375.16;5048832;28;20601;-28
2022/03/14 08:21:23;;;;;;;3.85;2.13;;;;;;;-148.56;100.00;61375.16;5047358;28;20039;-27
2022/03/14 08:23:49;;;;;;;4.80;1.83;;;;;;;-148.56;100.00;61375.16;5046930;28;20048;-28
2022/03/14 08:26:15;;;;;;;3.47;1.90;;;;;;;-148.56;100.00;61375.16;5046953;28;20041;-28
2022/03/14 08:28:43;;;;;;;6.10;2.00;;;;;;;-148.56;100.00;61375.16;5046223;28;20371;-29
2022/03/14 08:31:09;;;;;;;4.20;1.63;;;;;;;-148.56;100.00;61375.16;5045791;28;20050;-29
2022/03/14 08:33:39;;;;;;;4.45;1.92;;;;;;;-148.56;100.00;61375.16;5056617;28;20062;-28
2022/03/14 08:36:05;;;;;;;3.13;1.58;;;;;;;-148.56;100.00;61375.16;5047528;28;20033;-32
2022/03/14 08:38:31;;;;;;;3.67;1.80;;;;;;;-148.56;100.00;61375.16;5016311;28;20047;-28
2022/03/14 08:40:56;;;;;;;4.50;1.83;;;;;;;-148.56;100.00;61375.16;5010295;28;20143;-28
2022/03/14 08:43:22;;;;;;;7.82;2.00;;;;;;;-148.56;100.00;61375.16;5009140;28;20855;-28
2022/03/14 08:45:47;;;;;;;4.38;1.58;;;;;;;-148.56;100.00;61375.16;5007561;28;20056;-26
2022/03/14 08:48:13;;;;;;;6.90;2.20;;;;;;;-148.56;100.00;61375.16;5008255;28;20147;-32
2022/03/14 08:50:40;;;;;;;4.85;1.75;;;;;;;-148.56;100.00;61375.16;5007154;28;20037;-30
2022/03/14 08:53:06;;;;;;;6.00;1.60;;;;;;;-148.56;100.00;61375.16;5011936;28;20049;-30
2022/03/14 08:55:31;;;;;;;4.68;1.60;;;;;;;-148.56;100.00;61375.16;5005800;28;20040;-25
2022/03/14 08:57:57;;;;;;;4.88;1.88;;;;;;;-148.56;100.00;61375.16;5008057;28;20695;-29
2022/03/14 09:00:24;;;;;;;16.20;1.95;;;;;;;-148.56;100.00;61375.16;5006932;28;20683;-31
2022/03/14 09:02:50;;;;;;;8.35;1.70;;;;;;;-148.56;100.00;61375.16;5013152;28;20035;-27
2022/03/14 09:05:16;;;;;;;4.90;1.50;;;;;;;-148.56;100.00;61375.16;5011662;28;20115;-27
2022/03/14 09:07:41;;;;;;;5.65;1.60;;;;;;;-148.56;100.00;61375.16;5016631;28;20063;-29
2022/03/14 09:10:08;;;;;;;3.97;1.67;;;;;;;-148.56;100.00;61375.16;5016952;28;20051;-25
2022/03/14 09:12:35;;;;;;;2.95;1.25;;;;;;;-148.56;100.00;61375.16;5015934;28;20024;-28
2022/03/14 09:15:01;;;;;;;4.35;1.50;;;;;;;-148.56;100.00;61375.16;5016951;28;20024;-29
2022/03/14 09:17:27;;;;;;;5.20;1.85;;;;;;;-148.56;100.00;61375.16;5016063;28;20987;-29
2022/03/14 09:19:53;;;;;;;4.05;1.55;;;;;;;-148.56;100.00;61375.16;5014376;28;20021;-27
2022/03/14 09:22:18;;;;;;;6.68;1.67;;;;;;;-148.56;100.00;61375.16;5017932;28;20086;-32
2022/03/14 09:24:46;;;;;;;6.88;1.70;;;;;;;-148.56;100.00;61375.16;5013754;28;20070;-27
2022/03/14 09:27:11;;;;;;;8.50;1.40;;;;;;;-148.56;100.00;61375.16;5010572;28;20048;-25
2022/03/14 09:29:37;;;;;;;9.40;1.27;;;;;;;-148.56;100.00;61375.16;5013642;28;20052;-28
2022/03/14 09:32:02;;;;;;;10.95;1.45;;;;;;;-148.56;100.00;61375.16;5008803;28;20048;-31
2022/03/14 09:34:28;;;;;;;4.82;1.30;;;;;;;-148.56;100.00;61375.16;5011658;28;20032;-26
2022/03/14 09:36:55;;;;;;;6.65;1.52;;;;;;;-148.56;100.00;61375.16;5019257;28;20040;-27
2022/03/14 09:39:20;;;;;;;4.63;1.30;;;;;;;-148.56;100.00;61375.16;5053818;28;20033;-27
2022/03/14 09:41:48;;;;;;;6.78;1.38;;;;;;;-148.56;100.00;61375.16;5044198;28;20032;-32
2022/03/14 09:44:15;;;;;;;5.15;1.60;;;;;;;-148.56;100.00;61375.16;5055611;28;20028;-29
2022/03/14 09:46:40;;;;;;;5.00;1.75;;;;;;;-148.56;100.00;61375.16;5045135;28;20208;-28
2022/03/14 09:49:09;;;;;;;10.18;1.65;;;;;;;-148.56;100.00;61375.16;5026259;28;20115;-30
2022/03/14 09:51:38;;;;;;;15.32;2.80;;;;;;;-148.56;100.00;61375.16;5045184;28;21205;-28
2022/03/14 09:54:04;;;;;;;10.27;2.25;;;;;;;-148.56;100.00;61375.16;5046419;28;20040;-32
2022/03/14 09:56:30;;;;;;;13.10;2.50;;;;;;;-148.56;100.00;61375.16;5043283;28;20024;-28
2022/03/14 09:58:55;;;;;;;10.90;2.80;;;;;;;-148.56;100.00;61375.16;5052340;28;20024;-27
2022/03/14 10:01:21;;;;;;;16.45;3.08;;;;;;;-148.56;100.00;61375.16;5052401;28;20036;-30
2022/03/14 10:03:46;;;;;;;16.75;3.00;;;;;;;-148.56;100.00;61375.16;5042932;28;20482;-30
2022/03/14 10:06:11;;;;;;;10.55;2.55;;;;;;;-148.56;100.00;61375.16;5045123;28;20024;-28
2022/03/14 10:08:37;;;;;;;13.38;3.03;;;;;;;-148.56;100.00;61375.16;5053044;28;20036;-27
2022/03/14 10:11:02;;;;;;;12.73;3.38;;;;;;;-148.56;100.00;61375.16;5056175;28;20024;-29
2022/03/14 10:13:28;;;;;;;20.08;3.38;;;;;;;-148.56;100.00;61375.16;5061546;28;20020;-28
2022/03/14 10:15:53;;;;;;;10.65;2.88;;;;;;;-148.56;100.00;61375.16;5055938;28;20028;-31
2022/03/14 10:18:19;;;;;;;15.13;3.53;;;;;;;-148.56;100.00;61375.16;5059685;28;20033;-33
2022/03/14 10:21:02;;;;;;;12.02;2.67;;;;;;;-148.56;100.00;61375.16;5061959;28;20037;-30
2022/03/14 10:23:41;;;;;;;9.70;2.65;;;;;;;-148.56;100.00;61375.16;5059100;28;20028;-28
2022/03/14 10:26:07;;;;;;;10.60;2.50;;;;;;;-148.56;100.00;61375.16;5058297;28;20027;-28
2022/03/14 10:28:35;;;;;;;13.13;2.85;;;;;;;-148.56;100.00;61375.16;5062147;28;20024;-37
2022/03/14 10:31:01;;;;;;;6.40;2.40;;;;;;;-148.56;100.00;61375.16;5054955;28;20025;-28
2022/03/14 10:33:28;;;;;;;12.52;2.90;;;;;;;-148.56;100.00;61375.16;5051507;28;20079;-31
2022/03/14 10:35:55;;;;;;;7.25;2.63;;;;;;;-148.56;100.00;61375.16;5057209;28;20029;-31
2022/03/14 10:38:21;;;;;;;10.13;2.47;;;;;;;-148.56;100.00;61375.16;5059652;28;20025;-35
2022/03/14 10:40:47;;;;;;;7.78;2.35;;;;;;;-148.56;100.00;61375.16;5058015;28;20059;-31
2022/03/14 10:43:29;;;;;;;9.60;2.22;;;;;;;-148.56;100.00;61375.16;5061736;28;20928;-29
2022/03/14 10:45:58;;;;;;;8.75;2.22;;;;;;;-148.56;100.00;61375.16;5057837;28;20047;-28
2022/03/14 10:48:36;;;;;;;9.35;2.28;;;;;;;-148.56;100.00;61375.16;5057726;28;20583;-34
2022/03/14 10:51:05;;;;;;;7.30;2.40;;;;;;;-148.56;100.00;61375.16;5056600;28;20028;-32
2022/03/14 10:53:31;;;;;;;9.60;2.22;;;;;;;-148.56;100.00;61375.16;5056694;28;20024;-33
2022/03/14 10:55:58;;;;;;;7.55;2.30;;;;;;;-148.56;100.00;61375.16;5060299;28;20742;-29
2022/03/14 10:58:27;;;;;;;6.78;2.10;;;;;;;-148.56;100.00;61375.16;5056802;28;20039;-28
2022/03/14 11:00:54;;;;;;;7.65;2.13;;;;;;;-148.56;100.00;61375.16;5050721;28;20036;-30
2022/03/14 11:03:26;;;;;;;6.78;2.08;;;;;;;-148.56;100.00;61375.16;5055368;28;20032;-29
2022/03/14 11:05:52;;;;;;;;;;;;;;;-148.56;100.00;61375.16;5057088;28;20024;-22